sensor_id;sensor_type;location;lat;lon;timestamp;pressure;altitude;pressure_sealevel;temperature;humidity
68376;BME280;55318;52.068;5.188;2022-10-31T00:00:25;102136.0;;;12.67;95.91
68376;BME280;55318;52.068;5.188;2022-10-31T00:02:01;102135.0;;;12.65;95.56
68376;BME280;55318;52.068;5.188;2022-10-31T00:05:14;102127.0;;;12.63;95.92
68376;BME280;55318;52.068;5.188;2022-10-31T00:06:51;102126.0;;;12.62;96.13
68376;BME280;55318;52.068;5.188;2022-10-31T00:08:27;102130.0;;;12.62;96.77
68376;BME280;55318;52.068;5.188;2022-10-31T00:11:42;102131.0;;;12.67;97.27
68376;BME280;55318;52.068;5.188;2022-10-31T00:13:18;102130.0;;;12.68;96.7
68376;BME280;55318;52.068;5.188;2022-10-31T00:14:55;102128.0;;;12.66;96.49
68376;BME280;55318;52.068;5.188;2022-10-31T00:16:31;102127.0;;;12.62;96.28
68376;BME280;55318;52.068;5.188;2022-10-31T00:19:46;102127.0;;;12.55;96.3
68376;BME280;55318;52.068;5.188;2022-10-31T00:21:23;102123.0;;;12.54;96.19
68376;BME280;55318;52.068;5.188;2022-10-31T00:23:02;102124.0;;;12.53;96.26
68376;BME280;55318;52.068;5.188;2022-10-31T00:26:17;102131.0;;;12.53;96.1
68376;BME280;55318;52.068;5.188;2022-10-31T00:27:54;102131.0;;;12.46;96.06
68376;BME280;55318;52.068;5.188;2022-10-31T00:29:31;102136.0;;;12.49;96.17
68376;BME280;55318;52.068;5.188;2022-10-31T00:31:10;102139.0;;;12.48;96.02
68376;BME280;55318;52.068;5.188;2022-10-31T00:34:24;102130.0;;;12.49;95.97
68376;BME280;55318;52.068;5.188;2022-10-31T00:36:00;102132.0;;;12.45;96.33
68376;BME280;55318;52.068;5.188;2022-10-31T00:37:37;102132.0;;;12.39;96.02
68376;BME280;55318;52.068;5.188;2022-10-31T00:40:49;102137.0;;;12.41;96.17
68376;BME280;55318;52.068;5.188;2022-10-31T00:42:27;102140.0;;;12.41;96.19
68376;BME280;55318;52.068;5.188;2022-10-31T00:44:04;102137.0;;;12.36;95.93
68376;BME280;55318;52.068;5.188;2022-10-31T00:45:41;102139.0;;;12.35;96.17
68376;BME280;55318;52.068;5.188;2022-10-31T00:48:53;102149.0;;;12.29;96.12
68376;BME280;55318;52.068;5.188;2022-10-31T00:50:29;102151.0;;;12.27;96.37
68376;BME280;55318;52.068;5.188;2022-10-31T00:52:05;102150.0;;;12.26;96.33
68376;BME280;55318;52.068;5.188;2022-10-31T00:55:17;102147.0;;;12.24;96.14
68376;BME280;55318;52.068;5.188;2022-10-31T00:56:54;102146.0;;;12.24;96.1
68376;BME280;55318;52.068;5.188;2022-10-31T00:58:30;102145.0;;;12.19;95.86
68376;BME280;55318;52.068;5.188;2022-10-31T01:01:44;102143.0;;;12.25;95.77
68376;BME280;55318;52.068;5.188;2022-10-31T01:03:21;102140.0;;;12.26;95.8
68376;BME280;55318;52.068;5.188;2022-10-31T01:04:57;102144.0;;;12.22;95.66
68376;BME280;55318;52.068;5.188;2022-10-31T01:08:10;102146.0;;;12.2;95.71
68376;BME280;55318;52.068;5.188;2022-10-31T01:09:46;102142.0;;;12.27;95.46
68376;BME280;55318;52.068;5.188;2022-10-31T01:11:23;102138.0;;;12.23;95.95
68376;BME280;55318;52.068;5.188;2022-10-31T01:12:59;102134.0;;;12.17;95.54
68376;BME280;55318;52.068;5.188;2022-10-31T01:16:14;102119.0;;;12.09;95.79
68376;BME280;55318;52.068;5.188;2022-10-31T01:17:51;102123.0;;;12.07;96.06
68376;BME280;55318;52.068;5.188;2022-10-31T01:19:27;102118.0;;;12.09;96.51
68376;BME280;55318;52.068;5.188;2022-10-31T01:22:43;102113.0;;;12.05;95.56
68376;BME280;55318;52.068;5.188;2022-10-31T01:24:20;102113.0;;;11.98;95.45
68376;BME280;55318;52.068;5.188;2022-10-31T01:26:06;102112.0;;;11.94;95.34
68376;BME280;55318;52.068;5.188;2022-10-31T01:27:43;102112.0;;;11.88;95.19
68376;BME280;55318;52.068;5.188;2022-10-31T01:30:55;102112.0;;;11.85;94.85
68376;BME280;55318;52.068;5.188;2022-10-31T01:32:35;102109.0;;;11.79;94.83
68376;BME280;55318;52.068;5.188;2022-10-31T01:34:14;102110.0;;;11.74;94.66
68376;BME280;55318;52.068;5.188;2022-10-31T01:35:51;102112.0;;;11.68;95.03
68376;BME280;55318;52.068;5.188;2022-10-31T01:39:10;102111.0;;;11.65;95.23
68376;BME280;55318;52.068;5.188;2022-10-31T01:40:46;102107.0;;;11.62;94.69
68376;BME280;55318;52.068;5.188;2022-10-31T01:42:23;102105.0;;;11.52;94.69
68376;BME280;55318;52.068;5.188;2022-10-31T01:45:39;102108.0;;;11.46;94.32
68376;BME280;55318;52.068;5.188;2022-10-31T01:47:17;102105.0;;;11.41;94.24
68376;BME280;55318;52.068;5.188;2022-10-31T01:48:57;102099.0;;;11.35;94.22
68376;BME280;55318;52.068;5.188;2022-10-31T01:50:37;102095.0;;;11.34;94.25
68376;BME280;55318;52.068;5.188;2022-10-31T01:54:02;102103.0;;;11.27;95.44
68376;BME280;55318;52.068;5.188;2022-10-31T01:55:44;102107.0;;;11.24;94.74
68376;BME280;55318;52.068;5.188;2022-10-31T01:57:21;102105.0;;;11.18;94.27
68376;BME280;55318;52.068;5.188;2022-10-31T01:58:59;102110.0;;;11.14;94.41
68376;BME280;55318;52.068;5.188;2022-10-31T02:02:16;102106.0;;;11.13;94.28
68376;BME280;55318;52.068;5.188;2022-10-31T02:03:54;102106.0;;;11.1;94.37
68376;BME280;55318;52.068;5.188;2022-10-31T02:05:32;102105.0;;;11.13;94.62
68376;BME280;55318;52.068;5.188;2022-10-31T02:08:51;102102.0;;;11.04;94.5
68376;BME280;55318;52.068;5.188;2022-10-31T02:10:29;102101.0;;;11.01;94.81
68376;BME280;55318;52.068;5.188;2022-10-31T02:12:09;102101.0;;;11.01;95.2
68376;BME280;55318;52.068;5.188;2022-10-31T02:13:47;102101.0;;;10.98;94.76
68376;BME280;55318;52.068;5.188;2022-10-31T02:17:00;102099.0;;;10.92;95.17
68376;BME280;55318;52.068;5.188;2022-10-31T02:18:36;102105.0;;;11.0;95.86
68376;BME280;55318;52.068;5.188;2022-10-31T02:20:16;102102.0;;;10.92;95.45
68376;BME280;55318;52.068;5.188;2022-10-31T02:21:59;102102.0;;;10.89;95.37
68376;BME280;55318;52.068;5.188;2022-10-31T02:26:52;102098.0;;;10.78;95.51
68376;BME280;55318;52.068;5.188;2022-10-31T02:30:29;102096.0;;;10.71;95.25
68376;BME280;55318;52.068;5.188;2022-10-31T02:32:14;102095.0;;;10.69;95.21
68376;BME280;55318;52.068;5.188;2022-10-31T02:33:58;102096.0;;;10.62;95.17
68376;BME280;55318;52.068;5.188;2022-10-31T02:35:42;102096.0;;;10.63;95.08
68376;BME280;55318;52.068;5.188;2022-10-31T02:37:37;102103.0;;;10.62;94.66
68376;BME280;55318;52.068;5.188;2022-10-31T02:39:24;102100.0;;;10.61;94.21
68376;BME280;55318;52.068;5.188;2022-10-31T02:41:08;102105.0;;;10.59;94.55
68376;BME280;55318;52.068;5.188;2022-10-31T02:44:38;102108.0;;;10.54;94.51
68376;BME280;55318;52.068;5.188;2022-10-31T02:46:23;102105.0;;;10.5;94.44
68376;BME280;55318;52.068;5.188;2022-10-31T02:48:09;102110.0;;;10.46;94.36
68376;BME280;55318;52.068;5.188;2022-10-31T02:49:50;102107.0;;;10.42;94.42
68376;BME280;55318;52.068;5.188;2022-10-31T02:51:32;102110.0;;;10.39;94.15
68376;BME280;55318;52.068;5.188;2022-10-31T02:54:46;102107.0;;;10.36;94.04
68376;BME280;55318;52.068;5.188;2022-10-31T02:56:23;102108.0;;;10.39;94.54
68376;BME280;55318;52.068;5.188;2022-10-31T02:58:02;102109.0;;;10.4;94.42
68376;BME280;55318;52.068;5.188;2022-10-31T02:59:46;102110.0;;;10.33;94.38
68376;BME280;55318;52.068;5.188;2022-10-31T03:03:57;102111.0;;;10.31;94.5
68376;BME280;55318;52.068;5.188;2022-10-31T03:07:33;102109.0;;;10.3;94.11
68376;BME280;55318;52.068;5.188;2022-10-31T03:09:22;102109.0;;;10.27;94.05
68376;BME280;55318;52.068;5.188;2022-10-31T03:11:03;102102.0;;;10.26;94.31
68376;BME280;55318;52.068;5.188;2022-10-31T03:12:48;102103.0;;;10.23;94.43
68376;BME280;55318;52.068;5.188;2022-10-31T03:14:33;102109.0;;;10.23;94.71
68376;BME280;55318;52.068;5.188;2022-10-31T03:18:00;102109.0;;;10.15;94.65
68376;BME280;55318;52.068;5.188;2022-10-31T03:19:42;102105.0;;;10.1;94.34
68376;BME280;55318;52.068;5.188;2022-10-31T03:21:24;102108.0;;;10.14;94.8
68376;BME280;55318;52.068;5.188;2022-10-31T03:23:05;102110.0;;;10.08;94.71
68376;BME280;55318;52.068;5.188;2022-10-31T03:24:46;102110.0;;;10.05;94.64
68376;BME280;55318;52.068;5.188;2022-10-31T03:28:04;102107.0;;;10.06;94.73
68376;BME280;55318;52.068;5.188;2022-10-31T03:29:44;102106.0;;;10.0;94.66
68376;BME280;55318;52.068;5.188;2022-10-31T03:31:24;102103.0;;;10.02;95.33
68376;BME280;55318;52.068;5.188;2022-10-31T03:33:11;102106.0;;;10.11;95.36
68376;BME280;55318;52.068;5.188;2022-10-31T03:36:34;102105.0;;;10.17;95.45
68376;BME280;55318;52.068;5.188;2022-10-31T03:38:13;102105.0;;;10.28;96.06
68376;BME280;55318;52.068;5.188;2022-10-31T03:39:50;102107.0;;;10.32;95.73
68376;BME280;55318;52.068;5.188;2022-10-31T03:41:31;102105.0;;;10.3;95.7
68376;BME280;55318;52.068;5.188;2022-10-31T03:45:02;102106.0;;;10.36;95.58
68376;BME280;55318;52.068;5.188;2022-10-31T03:46:41;102106.0;;;10.39;95.7
68376;BME280;55318;52.068;5.188;2022-10-31T03:48:20;102108.0;;;10.35;95.84
68376;BME280;55318;52.068;5.188;2022-10-31T03:49:57;102108.0;;;10.33;95.4
68376;BME280;55318;52.068;5.188;2022-10-31T03:53:22;102108.0;;;10.32;95.36
68376;BME280;55318;52.068;5.188;2022-10-31T03:55:06;102109.0;;;10.29;95.32
68376;BME280;55318;52.068;5.188;2022-10-31T03:56:52;102108.0;;;10.26;95.56
68376;BME280;55318;52.068;5.188;2022-10-31T03:58:34;102105.0;;;10.21;95.19
68376;BME280;55318;52.068;5.188;2022-10-31T04:01:55;102106.0;;;10.17;95.36
68376;BME280;55318;52.068;5.188;2022-10-31T04:03:38;102112.0;;;10.14;95.67
68376;BME280;55318;52.068;5.188;2022-10-31T04:05:15;102109.0;;;10.06;95.3
68376;BME280;55318;52.068;5.188;2022-10-31T04:06:55;102116.0;;;10.08;95.28
68376;BME280;55318;52.068;5.188;2022-10-31T04:10:17;102115.0;;;10.06;94.96
68376;BME280;55318;52.068;5.188;2022-10-31T04:11:56;102113.0;;;10.0;95.54
68376;BME280;55318;52.068;5.188;2022-10-31T04:13:37;102112.0;;;9.96;95.19
68376;BME280;55318;52.068;5.188;2022-10-31T04:15:15;102116.0;;;9.96;95.09
68376;BME280;55318;52.068;5.188;2022-10-31T04:18:28;102111.0;;;9.9;95.01
68376;BME280;55318;52.068;5.188;2022-10-31T04:20:06;102112.0;;;9.88;94.8
68376;BME280;55318;52.068;5.188;2022-10-31T04:21:43;102110.0;;;9.84;95.17
68376;BME280;55318;52.068;5.188;2022-10-31T04:23:24;102106.0;;;9.84;94.72
68376;BME280;55318;52.068;5.188;2022-10-31T04:26:36;102106.0;;;9.73;94.87
68376;BME280;55318;52.068;5.188;2022-10-31T04:28:13;102105.0;;;9.73;94.99
68376;BME280;55318;52.068;5.188;2022-10-31T04:29:49;102105.0;;;9.73;95.28
68376;BME280;55318;52.068;5.188;2022-10-31T04:33:02;102099.0;;;9.72;95.25
68376;BME280;55318;52.068;5.188;2022-10-31T04:34:38;102103.0;;;9.81;95.77
68376;BME280;55318;52.068;5.188;2022-10-31T04:36:14;102105.0;;;9.89;95.37
68376;BME280;55318;52.068;5.188;2022-10-31T04:39:26;102097.0;;;9.94;96.06
68376;BME280;55318;52.068;5.188;2022-10-31T04:41:02;102097.0;;;9.94;95.98
68376;BME280;55318;52.068;5.188;2022-10-31T04:42:38;102095.0;;;9.94;95.83
68376;BME280;55318;52.068;5.188;2022-10-31T04:44:15;102093.0;;;9.93;95.49
68376;BME280;55318;52.068;5.188;2022-10-31T04:47:27;102095.0;;;9.9;95.53
68376;BME280;55318;52.068;5.188;2022-10-31T04:49:03;102095.0;;;9.89;95.51
68376;BME280;55318;52.068;5.188;2022-10-31T04:50:39;102095.0;;;9.86;94.85
68376;BME280;55318;52.068;5.188;2022-10-31T04:53:53;102094.0;;;9.85;94.74
68376;BME280;55318;52.068;5.188;2022-10-31T04:55:29;102094.0;;;9.81;94.66
68376;BME280;55318;52.068;5.188;2022-10-31T04:57:06;102094.0;;;9.76;95.11
68376;BME280;55318;52.068;5.188;2022-10-31T05:00:20;102097.0;;;9.82;95.41
68376;BME280;55318;52.068;5.188;2022-10-31T05:01:57;102095.0;;;9.8;95.56
68376;BME280;55318;52.068;5.188;2022-10-31T05:03:34;102096.0;;;9.77;95.88
68376;BME280;55318;52.068;5.188;2022-10-31T05:05:10;102093.0;;;9.77;95.6
68376;BME280;55318;52.068;5.188;2022-10-31T05:08:22;102094.0;;;9.73;95.44
68376;BME280;55318;52.068;5.188;2022-10-31T05:09:58;102093.0;;;9.73;95.61
68376;BME280;55318;52.068;5.188;2022-10-31T05:11:34;102091.0;;;9.69;95.58
68376;BME280;55318;52.068;5.188;2022-10-31T05:14:47;102091.0;;;9.64;95.45
68376;BME280;55318;52.068;5.188;2022-10-31T05:16:23;102090.0;;;9.64;95.38
68376;BME280;55318;52.068;5.188;2022-10-31T05:17:59;102087.0;;;9.6;95.19
68376;BME280;55318;52.068;5.188;2022-10-31T05:21:12;102086.0;;;9.57;95.49
68376;BME280;55318;52.068;5.188;2022-10-31T05:22:50;102088.0;;;9.58;94.92
68376;BME280;55318;52.068;5.188;2022-10-31T05:24:27;102081.0;;;9.55;94.74
68376;BME280;55318;52.068;5.188;2022-10-31T05:26:03;102086.0;;;9.56;94.81
68376;BME280;55318;52.068;5.188;2022-10-31T05:29:17;102080.0;;;9.55;95.21
68376;BME280;55318;52.068;5.188;2022-10-31T05:30:54;102081.0;;;9.55;94.84
68376;BME280;55318;52.068;5.188;2022-10-31T05:32:36;102084.0;;;9.5;94.95
68376;BME280;55318;52.068;5.188;2022-10-31T05:35:49;102081.0;;;9.48;95.13
68376;BME280;55318;52.068;5.188;2022-10-31T05:37:25;102085.0;;;9.39;95.85
68376;BME280;55318;52.068;5.188;2022-10-31T05:39:01;102080.0;;;9.41;95.43
68376;BME280;55318;52.068;5.188;2022-10-31T05:40:38;102082.0;;;9.51;95.7
68376;BME280;55318;52.068;5.188;2022-10-31T05:43:51;102080.0;;;9.49;95.76
68376;BME280;55318;52.068;5.188;2022-10-31T05:45:28;102080.0;;;9.49;95.58
68376;BME280;55318;52.068;5.188;2022-10-31T05:47:04;102075.0;;;9.43;95.55
68376;BME280;55318;52.068;5.188;2022-10-31T05:50:17;102072.0;;;9.42;95.55
68376;BME280;55318;52.068;5.188;2022-10-31T05:51:54;102075.0;;;9.38;95.44
68376;BME280;55318;52.068;5.188;2022-10-31T05:53:31;102072.0;;;9.57;96.37
68376;BME280;55318;52.068;5.188;2022-10-31T05:56:44;102071.0;;;9.64;95.42
68376;BME280;55318;52.068;5.188;2022-10-31T05:58:20;102068.0;;;9.73;96.61
68376;BME280;55318;52.068;5.188;2022-10-31T05:59:57;102068.0;;;9.92;95.93
68376;BME280;55318;52.068;5.188;2022-10-31T06:01:33;102070.0;;;10.17;95.88
68376;BME280;55318;52.068;5.188;2022-10-31T06:04:46;102068.0;;;10.37;98.27
68376;BME280;55318;52.068;5.188;2022-10-31T06:06:22;102068.0;;;10.47;100.0
68376;BME280;55318;52.068;5.188;2022-10-31T06:07:58;102065.0;;;10.66;100.0
68376;BME280;55318;52.068;5.188;2022-10-31T06:11:10;102056.0;;;10.8;100.0
68376;BME280;55318;52.068;5.188;2022-10-31T06:12:47;102058.0;;;10.93;100.0
68376;BME280;55318;52.068;5.188;2022-10-31T06:14:24;102060.0;;;11.04;100.0
68376;BME280;55318;52.068;5.188;2022-10-31T06:17:36;102061.0;;;11.02;100.0
68376;BME280;55318;52.068;5.188;2022-10-31T06:19:12;102063.0;;;11.08;100.0
68376;BME280;55318;52.068;5.188;2022-10-31T06:20:48;102065.0;;;11.17;100.0
68376;BME280;55318;52.068;5.188;2022-10-31T06:24:02;102069.0;;;11.22;100.0
68376;BME280;55318;52.068;5.188;2022-10-31T06:25:39;102063.0;;;11.22;100.0
68376;BME280;55318;52.068;5.188;2022-10-31T06:27:15;102066.0;;;11.17;100.0
68376;BME280;55318;52.068;5.188;2022-10-31T06:28:51;102073.0;;;11.21;100.0
68376;BME280;55318;52.068;5.188;2022-10-31T06:32:04;102076.0;;;11.24;100.0
68376;BME280;55318;52.068;5.188;2022-10-31T06:33:40;102080.0;;;11.29;100.0
68376;BME280;55318;52.068;5.188;2022-10-31T06:35:17;102077.0;;;11.31;100.0
68376;BME280;55318;52.068;5.188;2022-10-31T06:38:29;102077.0;;;11.3;100.0
68376;BME280;55318;52.068;5.188;2022-10-31T06:40:06;102080.0;;;11.3;100.0
68376;BME280;55318;52.068;5.188;2022-10-31T06:41:42;102080.0;;;11.31;100.0
68376;BME280;55318;52.068;5.188;2022-10-31T06:44:56;102078.0;;;11.31;100.0
68376;BME280;55318;52.068;5.188;2022-10-31T06:46:32;102075.0;;;11.31;100.0
68376;BME280;55318;52.068;5.188;2022-10-31T06:48:08;102075.0;;;11.37;100.0
68376;BME280;55318;52.068;5.188;2022-10-31T06:49:44;102075.0;;;11.36;100.0
68376;BME280;55318;52.068;5.188;2022-10-31T06:52:58;102080.0;;;11.36;100.0
68376;BME280;55318;52.068;5.188;2022-10-31T06:54:34;102081.0;;;11.35;100.0
68376;BME280;55318;52.068;5.188;2022-10-31T06:56:11;102081.0;;;11.51;100.0
68376;BME280;55318;52.068;5.188;2022-10-31T06:59:26;102084.0;;;11.48;100.0
68376;BME280;55318;52.068;5.188;2022-10-31T07:01:02;102088.0;;;11.45;100.0
68376;BME280;55318;52.068;5.188;2022-10-31T07:02:38;102085.0;;;11.39;100.0
68376;BME280;55318;52.068;5.188;2022-10-31T07:05:51;102083.0;;;11.41;100.0
68376;BME280;55318;52.068;5.188;2022-10-31T07:07:27;102087.0;;;11.42;100.0
68376;BME280;55318;52.068;5.188;2022-10-31T07:09:03;102084.0;;;11.43;100.0
68376;BME280;55318;52.068;5.188;2022-10-31T07:10:42;102082.0;;;11.45;100.0
68376;BME280;55318;52.068;5.188;2022-10-31T07:13:54;102080.0;;;11.51;100.0
68376;BME280;55318;52.068;5.188;2022-10-31T07:15:36;102076.0;;;11.5;100.0
68376;BME280;55318;52.068;5.188;2022-10-31T07:17:14;102077.0;;;11.56;100.0
68376;BME280;55318;52.068;5.188;2022-10-31T07:20:27;102075.0;;;11.57;100.0
68376;BME280;55318;52.068;5.188;2022-10-31T07:22:03;102076.0;;;11.66;100.0
68376;BME280;55318;52.068;5.188;2022-10-31T07:23:39;102082.0;;;11.69;100.0
68376;BME280;55318;52.068;5.188;2022-10-31T07:25:16;102089.0;;;11.63;100.0
68376;BME280;55318;52.068;5.188;2022-10-31T07:28:28;102088.0;;;11.7;100.0
68376;BME280;55318;52.068;5.188;2022-10-31T07:30:06;102091.0;;;11.69;100.0
68376;BME280;55318;52.068;5.188;2022-10-31T07:31:48;102088.0;;;11.65;100.0
68376;BME280;55318;52.068;5.188;2022-10-31T07:35:02;102087.0;;;11.65;100.0
68376;BME280;55318;52.068;5.188;2022-10-31T07:36:38;102088.0;;;11.65;100.0
68376;BME280;55318;52.068;5.188;2022-10-31T07:38:15;102089.0;;;11.71;100.0
68376;BME280;55318;52.068;5.188;2022-10-31T07:41:28;102089.0;;;11.8;100.0
68376;BME280;55318;52.068;5.188;2022-10-31T07:43:04;102087.0;;;11.76;100.0
68376;BME280;55318;52.068;5.188;2022-10-31T07:44:41;102089.0;;;11.82;100.0
68376;BME280;55318;52.068;5.188;2022-10-31T07:46:17;102089.0;;;11.81;100.0
68376;BME280;55318;52.068;5.188;2022-10-31T07:49:30;102090.0;;;11.86;100.0
68376;BME280;55318;52.068;5.188;2022-10-31T07:51:07;102095.0;;;12.0;100.0
68376;BME280;55318;52.068;5.188;2022-10-31T07:52:43;102096.0;;;11.99;100.0
68376;BME280;55318;52.068;5.188;2022-10-31T07:55:56;102096.0;;;12.08;100.0
68376;BME280;55318;52.068;5.188;2022-10-31T07:57:32;102101.0;;;12.09;100.0
68376;BME280;55318;52.068;5.188;2022-10-31T07:59:08;102103.0;;;12.15;100.0
68376;BME280;55318;52.068;5.188;2022-10-31T08:02:23;102105.0;;;12.19;100.0
68376;BME280;55318;52.068;5.188;2022-10-31T08:04:00;102099.0;;;12.31;100.0
68376;BME280;55318;52.068;5.188;2022-10-31T08:05:37;102106.0;;;12.33;100.0
68376;BME280;55318;52.068;5.188;2022-10-31T08:07:13;102105.0;;;12.43;100.0
68376;BME280;55318;52.068;5.188;2022-10-31T08:10:26;102106.0;;;12.51;100.0
68376;BME280;55318;52.068;5.188;2022-10-31T08:12:04;102101.0;;;12.65;100.0
68376;BME280;55318;52.068;5.188;2022-10-31T08:13:40;102101.0;;;12.75;100.0
68376;BME280;55318;52.068;5.188;2022-10-31T08:16:52;102107.0;;;12.85;100.0
68376;BME280;55318;52.068;5.188;2022-10-31T08:18:29;102108.0;;;12.97;100.0
68376;BME280;55318;52.068;5.188;2022-10-31T08:20:07;102107.0;;;13.02;100.0
68376;BME280;55318;52.068;5.188;2022-10-31T08:21:43;102101.0;;;13.14;100.0
68376;BME280;55318;52.068;5.188;2022-10-31T08:24:56;102093.0;;;13.19;100.0
68376;BME280;55318;52.068;5.188;2022-10-31T08:26:32;102094.0;;;13.14;100.0
68376;BME280;55318;52.068;5.188;2022-10-31T08:28:10;102098.0;;;13.19;100.0
68376;BME280;55318;52.068;5.188;2022-10-31T08:31:26;102097.0;;;13.12;100.0
68376;BME280;55318;52.068;5.188;2022-10-31T08:33:04;102097.0;;;13.11;100.0
68376;BME280;55318;52.068;5.188;2022-10-31T08:34:41;102101.0;;;13.14;100.0
68376;BME280;55318;52.068;5.188;2022-10-31T08:37:54;102098.0;;;13.16;100.0
68376;BME280;55318;52.068;5.188;2022-10-31T08:39:31;102099.0;;;13.2;100.0
68376;BME280;55318;52.068;5.188;2022-10-31T08:41:08;102105.0;;;13.3;100.0
68376;BME280;55318;52.068;5.188;2022-10-31T08:42:44;102101.0;;;13.18;100.0
68376;BME280;55318;52.068;5.188;2022-10-31T08:45:57;102096.0;;;13.19;100.0
68376;BME280;55318;52.068;5.188;2022-10-31T08:47:33;102094.0;;;13.2;100.0
68376;BME280;55318;52.068;5.188;2022-10-31T08:49:09;102091.0;;;13.22;100.0
68376;BME280;55318;52.068;5.188;2022-10-31T08:52:23;102088.0;;;13.23;100.0
68376;BME280;55318;52.068;5.188;2022-10-31T08:54:00;102083.0;;;13.25;100.0
68376;BME280;55318;52.068;5.188;2022-10-31T08:55:38;102081.0;;;13.37;100.0
68376;BME280;55318;52.068;5.188;2022-10-31T08:58:52;102075.0;;;13.43;100.0
68376;BME280;55318;52.068;5.188;2022-10-31T09:00:28;102073.0;;;13.56;100.0
68376;BME280;55318;52.068;5.188;2022-10-31T09:02:05;102069.0;;;13.75;100.0
68376;BME280;55318;52.068;5.188;2022-10-31T09:03:40;102072.0;;;13.87;100.0
68376;BME280;55318;52.068;5.188;2022-10-31T09:06:53;102071.0;;;14.0;100.0
68376;BME280;55318;52.068;5.188;2022-10-31T09:08:30;102068.0;;;13.97;100.0
68376;BME280;55318;52.068;5.188;2022-10-31T09:10:07;102065.0;;;13.97;100.0
68376;BME280;55318;52.068;5.188;2022-10-31T09:13:21;102063.0;;;14.19;100.0
68376;BME280;55318;52.068;5.188;2022-10-31T09:14:57;102058.0;;;14.36;100.0
68376;BME280;55318;52.068;5.188;2022-10-31T09:16:33;102055.0;;;14.54;100.0
68376;BME280;55318;52.068;5.188;2022-10-31T09:19:46;102046.0;;;14.58;99.5
68376;BME280;55318;52.068;5.188;2022-10-31T09:21:22;102040.0;;;14.74;99.27
68376;BME280;55318;52.068;5.188;2022-10-31T09:23:00;102036.0;;;14.84;98.45
68376;BME280;55318;52.068;5.188;2022-10-31T09:24:38;102037.0;;;14.99;98.89
68376;BME280;55318;52.068;5.188;2022-10-31T09:27:50;102036.0;;;15.08;97.82
68376;BME280;55318;52.068;5.188;2022-10-31T09:29:26;102038.0;;;15.12;97.87
68376;BME280;55318;52.068;5.188;2022-10-31T09:31:02;102036.0;;;15.1;97.39
68376;BME280;55318;52.068;5.188;2022-10-31T09:34:15;102037.0;;;15.11;97.32
68376;BME280;55318;52.068;5.188;2022-10-31T09:35:51;102032.0;;;15.21;97.0
68376;BME280;55318;52.068;5.188;2022-10-31T09:37:27;102033.0;;;15.24;96.86
68376;BME280;55318;52.068;5.188;2022-10-31T09:40:41;102036.0;;;15.24;96.15
68376;BME280;55318;52.068;5.188;2022-10-31T09:42:43;102033.0;;;15.16;96.25
68376;BME280;55318;52.068;5.188;2022-10-31T09:44:30;102038.0;;;15.21;96.97
68376;BME280;55318;52.068;5.188;2022-10-31T09:46:18;102040.0;;;15.24;96.26
68376;BME280;55318;52.068;5.188;2022-10-31T09:48:26;102035.0;;;15.36;96.0
68376;BME280;55318;52.068;5.188;2022-10-31T09:50:17;102033.0;;;15.42;95.84
68376;BME280;55318;52.068;5.188;2022-10-31T09:52:00;102028.0;;;15.32;95.53
68376;BME280;55318;52.068;5.188;2022-10-31T09:53:53;102023.0;;;15.4;95.29
68376;BME280;55318;52.068;5.188;2022-10-31T09:57:17;102016.0;;;15.42;95.23
68376;BME280;55318;52.068;5.188;2022-10-31T09:59:02;102015.0;;;15.54;95.44
68376;BME280;55318;52.068;5.188;2022-10-31T10:00:40;102017.0;;;15.49;95.41
68376;BME280;55318;52.068;5.188;2022-10-31T10:02:21;102016.0;;;15.62;95.0
68376;BME280;55318;52.068;5.188;2022-10-31T10:05:54;102017.0;;;15.46;94.87
68376;BME280;55318;52.068;5.188;2022-10-31T10:07:41;102016.0;;;15.48;95.16
68376;BME280;55318;52.068;5.188;2022-10-31T10:09:24;102013.0;;;15.51;95.06
68376;BME280;55318;52.068;5.188;2022-10-31T10:11:13;102009.0;;;15.54;94.82
68376;BME280;55318;52.068;5.188;2022-10-31T10:13:28;102005.0;;;15.69;94.39
68376;BME280;55318;52.068;5.188;2022-10-31T10:16:23;102002.0;;;15.74;94.65
68376;BME280;55318;52.068;5.188;2022-10-31T10:18:12;101999.0;;;15.79;94.08
68376;BME280;55318;52.068;5.188;2022-10-31T10:20:10;102001.0;;;15.69;93.9
68376;BME280;55318;52.068;5.188;2022-10-31T10:21:55;102006.0;;;15.91;93.52
68376;BME280;55318;52.068;5.188;2022-10-31T10:23:51;102005.0;;;15.91;93.75
68376;BME280;55318;52.068;5.188;2022-10-31T10:25:37;102003.0;;;15.92;93.62
68376;BME280;55318;52.068;5.188;2022-10-31T10:29:02;101994.0;;;16.06;93.53
68376;BME280;55318;52.068;5.188;2022-10-31T10:30:57;101989.0;;;16.18;92.92
68376;BME280;55318;52.068;5.188;2022-10-31T10:32:41;101986.0;;;16.21;92.85
68376;BME280;55318;52.068;5.188;2022-10-31T10:34:23;101989.0;;;16.3;92.84
68376;BME280;55318;52.068;5.188;2022-10-31T10:36:05;101990.0;;;16.3;94.0
68376;BME280;55318;52.068;5.188;2022-10-31T10:37:46;101985.0;;;16.23;92.91
68376;BME280;55318;52.068;5.188;2022-10-31T10:41:12;101983.0;;;16.25;93.61
68376;BME280;55318;52.068;5.188;2022-10-31T10:43:29;101974.0;;;16.21;93.53
68376;BME280;55318;52.068;5.188;2022-10-31T10:48:06;101953.0;;;16.41;93.32
68376;BME280;55318;52.068;5.188;2022-10-31T10:49:48;101944.0;;;16.5;93.06
68376;BME280;55318;52.068;5.188;2022-10-31T10:51:33;101939.0;;;16.5;93.2
68376;BME280;55318;52.068;5.188;2022-10-31T10:53:33;101933.0;;;16.53;93.39
68376;BME280;55318;52.068;5.188;2022-10-31T10:55:19;101937.0;;;16.59;92.99
68376;BME280;55318;52.068;5.188;2022-10-31T10:57:09;101934.0;;;16.56;92.81
68376;BME280;55318;52.068;5.188;2022-10-31T10:58:51;101933.0;;;16.63;93.2
68376;BME280;55318;52.068;5.188;2022-10-31T11:02:22;101925.0;;;16.75;92.31
68376;BME280;55318;52.068;5.188;2022-10-31T11:04:01;101917.0;;;16.8;92.1
68376;BME280;55318;52.068;5.188;2022-10-31T11:05:40;101906.0;;;16.86;92.19
68376;BME280;55318;52.068;5.188;2022-10-31T11:07:22;101903.0;;;16.9;91.48
68376;BME280;55318;52.068;5.188;2022-10-31T11:10:56;101897.0;;;16.9;90.97
68376;BME280;55318;52.068;5.188;2022-10-31T11:12:33;101892.0;;;16.95;91.26
68376;BME280;55318;52.068;5.188;2022-10-31T11:14:13;101895.0;;;17.06;90.57